NOZ3153 EFHK-EKCH
Flight info
| Callsign | NOZ3153 |
|---|---|
| Flight time | 1h 20m |
| Altitude | 36000 |
| Route | NUNTO Y369 REKDO DCT KOSKA DCT KOTAM L990 EKRAL P605 TIDVU |
| Aircraft | B738/M-SDE2E3FGHIRWXY/LB1 |
Departure
| Time | 2026-04-23 17:53 |
|---|---|
| Airport | Helsinki Vantaa Airport (EFHK) |
Arrival
| Time | 2026-04-23 19:14 |
|---|---|
| Airport | Copenhagen Kastrup Airport (EKCH) |
| Time | Latitude | Longitude | Altitude | Speed | Heading |
|---|---|---|---|---|---|
| 2026-04-23 17:28 | 60.31788 | 24.97086 | 160 ft | 0 kts | 244° |
| 2026-04-23 17:38 | 60.31791 | 24.97099 | 160 ft | 2 kts | 244° |
| 2026-04-23 17:38 | 60.31798 | 24.97129 | 160 ft | 2 kts | 244° |
| 2026-04-23 17:38 | 60.31807 | 24.97165 | 160 ft | 3 kts | 250° |
| 2026-04-23 17:39 | 60.31806 | 24.97211 | 160 ft | 3 kts | 313° |
| 2026-04-23 17:39 | 60.31798 | 24.97224 | 160 ft | 0 kts | 334° |
| 2026-04-23 17:42 | 60.31799 | 24.97223 | 160 ft | 1 kts | 334° |
| 2026-04-23 17:43 | 60.31821 | 24.97202 | 160 ft | 7 kts | 334° |
| 2026-04-23 17:43 | 60.31876 | 24.97145 | 160 ft | 9 kts | 333° |
| 2026-04-23 17:43 | 60.31932 | 24.97179 | 160 ft | 9 kts | 45° |
| 2026-04-23 17:43 | 60.32001 | 24.97167 | 160 ft | 14 kts | 330° |
| 2026-04-23 17:44 | 60.32102 | 24.97061 | 160 ft | 17 kts | 333° |
| 2026-04-23 17:44 | 60.32207 | 24.96951 | 160 ft | 17 kts | 333° |
| 2026-04-23 17:44 | 60.32264 | 24.96699 | 160 ft | 13 kts | 228° |
| 2026-04-23 17:45 | 60.32188 | 24.96534 | 160 ft | 17 kts | 229° |
| 2026-04-23 17:45 | 60.32035 | 24.96193 | 161 ft | 16 kts | 227° |
| 2026-04-23 17:45 | 60.31961 | 24.96031 | 161 ft | 15 kts | 227° |
| 2026-04-23 17:46 | 60.31803 | 24.95680 | 160 ft | 19 kts | 227° |
| 2026-04-23 17:46 | 60.31713 | 24.95483 | 160 ft | 19 kts | 227° |
| 2026-04-23 17:46 | 60.31624 | 24.95290 | 161 ft | 19 kts | 227° |
| 2026-04-23 17:47 | 60.31532 | 24.95086 | 160 ft | 20 kts | 227° |
| 2026-04-23 17:47 | 60.31441 | 24.94884 | 160 ft | 20 kts | 228° |
| 2026-04-23 17:47 | 60.31248 | 24.94463 | 160 ft | 20 kts | 228° |
| 2026-04-23 17:48 | 60.31156 | 24.94256 | 160 ft | 20 kts | 228° |
| 2026-04-23 17:48 | 60.31066 | 24.94054 | 160 ft | 19 kts | 228° |
| 2026-04-23 17:48 | 60.31044 | 24.93844 | 160 ft | 5 kts | 296° |
| 2026-04-23 17:48 | 60.31044 | 24.93843 | 160 ft | 0 kts | 297° |
| 2026-04-23 17:50 | 60.31047 | 24.93835 | 160 ft | 2 kts | 301° |
| 2026-04-23 17:50 | 60.31078 | 24.93762 | 160 ft | 10 kts | 318° |
| 2026-04-23 17:51 | 60.31140 | 24.93697 | 160 ft | 10 kts | 358° |
| 2026-04-23 17:51 | 60.31177 | 24.93740 | 160 ft | 0 kts | 47° |
| 2026-04-23 17:53 | 60.31581 | 24.94631 | 160 ft | 110 kts | 47° |
| 2026-04-23 17:53 | 60.32240 | 24.96045 | 266 ft | 157 kts | 43° |
| 2026-04-23 17:53 | 60.32991 | 24.97680 | 1010 ft | 157 kts | 45° |
| 2026-04-23 17:54 | 60.33717 | 24.99376 | 1801 ft | 163 kts | 45° |
| 2026-04-23 17:54 | 60.34498 | 25.01190 | 2406 ft | 182 kts | 44° |
| 2026-04-23 17:54 | 60.36460 | 25.05426 | 3076 ft | 225 kts | 44° |
| 2026-04-23 17:55 | 60.38720 | 25.10389 | 4335 ft | 251 kts | 43° |
| 2026-04-23 17:55 | 60.40141 | 25.12369 | 5185 ft | 249 kts | 18° |
| 2026-04-23 17:55 | 60.41824 | 25.12992 | 6064 ft | 251 kts | 2° |
| 2026-04-23 17:56 | 60.43587 | 25.13069 | 6900 ft | 254 kts | 360° |
| 2026-04-23 17:56 | 60.46989 | 25.12068 | 8820 ft | 252 kts | 328° |
| 2026-04-23 17:56 | 60.48230 | 25.09543 | 9761 ft | 258 kts | 308° |
| 2026-04-23 17:57 | 60.48937 | 25.06099 | 10367 ft | 280 kts | 287° |
| 2026-04-23 17:57 | 60.48886 | 25.01896 | 10561 ft | 319 kts | 263° |
| 2026-04-23 17:57 | 60.46875 | 24.93032 | 10942 ft | 373 kts | 246° |
| 2026-04-23 17:58 | 60.45561 | 24.88372 | 11384 ft | 385 kts | 246° |
| 2026-04-23 17:58 | 60.44200 | 24.83652 | 12037 ft | 390 kts | 246° |
| 2026-04-23 17:58 | 60.42823 | 24.78869 | 12728 ft | 394 kts | 246° |
| 2026-04-23 17:58 | 60.41446 | 24.74043 | 13416 ft | 398 kts | 247° |
| 2026-04-23 17:59 | 60.40078 | 24.69205 | 14012 ft | 403 kts | 248° |
| 2026-04-23 17:59 | 60.38683 | 24.64239 | 14603 ft | 407 kts | 248° |
| 2026-04-23 17:59 | 60.37283 | 24.59238 | 15210 ft | 410 kts | 248° |
| 2026-04-23 17:59 | 60.35867 | 24.54176 | 15790 ft | 415 kts | 248° |
| 2026-04-23 18:00 | 60.34442 | 24.49079 | 16367 ft | 419 kts | 248° |
| 2026-04-23 18:00 | 60.32997 | 24.43922 | 16935 ft | 423 kts | 249° |
| 2026-04-23 18:00 | 60.31557 | 24.38794 | 17487 ft | 427 kts | 249° |
| 2026-04-23 18:00 | 60.30082 | 24.33549 | 18053 ft | 431 kts | 249° |
| 2026-04-23 18:01 | 60.28589 | 24.28258 | 18542 ft | 435 kts | 249° |
| 2026-04-23 18:01 | 60.27085 | 24.22941 | 19031 ft | 438 kts | 249° |
| 2026-04-23 18:01 | 60.25564 | 24.17577 | 19518 ft | 441 kts | 249° |
| 2026-04-23 18:01 | 60.24054 | 24.12263 | 19988 ft | 444 kts | 249° |
| 2026-04-23 18:02 | 60.23014 | 24.08610 | 20300 ft | 446 kts | 249° |
| 2026-04-23 18:02 | 60.20951 | 24.01381 | 20903 ft | 451 kts | 249° |
| 2026-04-23 18:02 | 60.19381 | 23.95893 | 21337 ft | 454 kts | 249° |
| 2026-04-23 18:02 | 60.17799 | 23.90381 | 21766 ft | 457 kts | 249° |
| 2026-04-23 18:03 | 60.16195 | 23.84804 | 22206 ft | 460 kts | 249° |
| 2026-04-23 18:03 | 60.14584 | 23.79214 | 22614 ft | 463 kts | 249° |
| 2026-04-23 18:03 | 60.12980 | 23.73666 | 23023 ft | 466 kts | 249° |
| 2026-04-23 18:03 | 60.11341 | 23.68006 | 23420 ft | 470 kts | 249° |
| 2026-04-23 18:04 | 60.09690 | 23.62322 | 23752 ft | 472 kts | 249° |
| 2026-04-23 18:04 | 60.08027 | 23.56609 | 24097 ft | 475 kts | 249° |
| 2026-04-23 18:04 | 60.06354 | 23.50879 | 24427 ft | 477 kts | 249° |
| 2026-04-23 18:04 | 60.04669 | 23.45122 | 24740 ft | 480 kts | 249° |
| 2026-04-23 18:05 | 60.02974 | 23.39344 | 25051 ft | 482 kts | 249° |
| 2026-04-23 18:05 | 60.01270 | 23.33548 | 25347 ft | 485 kts | 249° |
| 2026-04-23 18:05 | 59.99576 | 23.27804 | 25640 ft | 487 kts | 249° |
| 2026-04-23 18:05 | 59.97847 | 23.21953 | 25931 ft | 489 kts | 249° |
| 2026-04-23 18:06 | 59.96109 | 23.16088 | 26215 ft | 492 kts | 249° |
| 2026-04-23 18:06 | 59.94356 | 23.10187 | 26501 ft | 494 kts | 249° |
| 2026-04-23 18:06 | 59.92597 | 23.04280 | 26775 ft | 496 kts | 249° |
| 2026-04-23 18:06 | 59.90822 | 22.98334 | 27041 ft | 499 kts | 249° |
| 2026-04-23 18:07 | 59.89067 | 22.92473 | 27304 ft | 500 kts | 249° |
| 2026-04-23 18:07 | 59.87278 | 22.86514 | 27641 ft | 501 kts | 249° |
| 2026-04-23 18:07 | 59.85485 | 22.80563 | 28040 ft | 499 kts | 249° |
| 2026-04-23 18:07 | 59.83691 | 22.74629 | 28454 ft | 498 kts | 249° |
| 2026-04-23 18:08 | 59.82509 | 22.70720 | 28685 ft | 498 kts | 249° |
| 2026-04-23 18:08 | 59.80111 | 22.62811 | 29168 ft | 498 kts | 249° |
| 2026-04-23 18:08 | 59.78324 | 22.56937 | 29705 ft | 494 kts | 249° |
| 2026-04-23 18:08 | 59.76543 | 22.51106 | 30199 ft | 491 kts | 249° |
| 2026-04-23 18:09 | 59.74802 | 22.45417 | 30623 ft | 487 kts | 249° |
| 2026-04-23 18:09 | 59.73046 | 22.39685 | 31013 ft | 485 kts | 249° |
| 2026-04-23 18:09 | 59.71287 | 22.33949 | 31319 ft | 485 kts | 249° |
| 2026-04-23 18:09 | 59.69534 | 22.28245 | 31621 ft | 485 kts | 249° |
| 2026-04-23 18:10 | 59.67777 | 22.22543 | 31965 ft | 484 kts | 249° |
| 2026-04-23 18:10 | 59.66015 | 22.16844 | 32310 ft | 483 kts | 249° |
| 2026-04-23 18:10 | 59.64264 | 22.11195 | 32649 ft | 482 kts | 249° |
| 2026-04-23 18:10 | 59.62532 | 22.05624 | 32956 ft | 481 kts | 249° |
| 2026-04-23 18:11 | 59.60776 | 21.99986 | 33264 ft | 480 kts | 248° |
| 2026-04-23 18:11 | 59.59023 | 21.94370 | 33582 ft | 479 kts | 248° |
| 2026-04-23 18:11 | 59.57264 | 21.88754 | 33897 ft | 478 kts | 248° |
| 2026-04-23 18:11 | 59.55512 | 21.83170 | 34160 ft | 478 kts | 248° |
| 2026-04-23 18:12 | 59.53763 | 21.77609 | 34400 ft | 477 kts | 248° |
| 2026-04-23 18:12 | 59.52011 | 21.72052 | 34628 ft | 477 kts | 248° |
| 2026-04-23 18:12 | 59.50278 | 21.66568 | 34857 ft | 477 kts | 248° |
| 2026-04-23 18:12 | 59.48525 | 21.61034 | 35102 ft | 476 kts | 248° |
| 2026-04-23 18:13 | 59.46772 | 21.55513 | 35343 ft | 475 kts | 248° |
| 2026-04-23 18:13 | 59.45020 | 21.50010 | 35562 ft | 475 kts | 247° |
| 2026-04-23 18:13 | 59.43262 | 21.44499 | 35785 ft | 474 kts | 247° |
| 2026-04-23 18:13 | 59.41509 | 21.39017 | 36007 ft | 474 kts | 247° |
| 2026-04-23 18:14 | 59.40349 | 21.35397 | 36157 ft | 473 kts | 247° |
| 2026-04-23 18:14 | 59.38001 | 21.28084 | 36448 ft | 472 kts | 247° |
| 2026-04-23 18:14 | 59.36262 | 21.22683 | 36660 ft | 472 kts | 247° |
| 2026-04-23 18:14 | 59.34508 | 21.17248 | 36856 ft | 471 kts | 246° |
| 2026-04-23 18:15 | 59.32752 | 21.11820 | 37053 ft | 471 kts | 246° |
| 2026-04-23 18:15 | 59.30996 | 21.06405 | 37254 ft | 470 kts | 246° |
| 2026-04-23 18:15 | 59.29238 | 21.00994 | 37460 ft | 470 kts | 246° |
| 2026-04-23 18:16 | 59.26305 | 20.91989 | 37553 ft | 474 kts | 246° |
| 2026-04-23 18:16 | 59.22750 | 20.81121 | 37718 ft | 478 kts | 246° |
| 2026-04-23 18:17 | 59.19149 | 20.70177 | 37962 ft | 479 kts | 245° |
| 2026-04-23 18:17 | 59.17180 | 20.64869 | 37963 ft | 488 kts | 237° |
| 2026-04-23 18:17 | 59.12653 | 20.54968 | 37968 ft | 489 kts | 235° |
| 2026-04-23 18:18 | 59.08080 | 20.45303 | 37972 ft | 487 kts | 235° |
| 2026-04-23 18:18 | 59.03505 | 20.35573 | 37978 ft | 486 kts | 236° |
| 2026-04-23 18:19 | 58.98971 | 20.25866 | 37977 ft | 485 kts | 236° |
| 2026-04-23 18:19 | 58.94413 | 20.16105 | 37996 ft | 490 kts | 236° |
| 2026-04-23 18:20 | 58.89840 | 20.06352 | 37997 ft | 495 kts | 236° |
| 2026-04-23 18:20 | 58.85173 | 19.96454 | 38004 ft | 499 kts | 235° |
| 2026-04-23 18:21 | 58.80501 | 19.86598 | 37997 ft | 501 kts | 235° |
| 2026-04-23 18:21 | 58.75775 | 19.76670 | 38001 ft | 503 kts | 235° |
| 2026-04-23 18:22 | 58.71025 | 19.66737 | 37997 ft | 504 kts | 235° |
| 2026-04-23 18:22 | 58.66264 | 19.56821 | 38002 ft | 504 kts | 235° |
| 2026-04-23 18:23 | 58.59098 | 19.41976 | 38001 ft | 504 kts | 234° |
| 2026-04-23 18:24 | 58.51962 | 19.27286 | 38004 ft | 503 kts | 234° |
| 2026-04-23 18:25 | 58.44796 | 19.12628 | 38006 ft | 502 kts | 234° |
| 2026-04-23 18:25 | 58.40013 | 19.02897 | 38006 ft | 502 kts | 234° |
| 2026-04-23 18:26 | 58.35232 | 18.93210 | 38011 ft | 501 kts | 234° |
| 2026-04-23 18:26 | 58.30475 | 18.83614 | 38017 ft | 500 kts | 234° |
| 2026-04-23 18:27 | 58.25699 | 18.74019 | 38014 ft | 500 kts | 233° |
| 2026-04-23 18:27 | 58.20911 | 18.64439 | 38018 ft | 499 kts | 233° |
| 2026-04-23 18:28 | 58.16126 | 18.54906 | 38023 ft | 498 kts | 233° |
| 2026-04-23 18:28 | 58.11369 | 18.45470 | 38023 ft | 498 kts | 233° |
| 2026-04-23 18:29 | 58.06584 | 18.36014 | 38028 ft | 497 kts | 233° |
| 2026-04-23 18:29 | 58.01790 | 18.26583 | 38031 ft | 496 kts | 233° |
| 2026-04-23 18:30 | 57.96999 | 18.17195 | 38030 ft | 496 kts | 233° |
| 2026-04-23 18:30 | 57.92239 | 18.07906 | 38024 ft | 495 kts | 233° |
| 2026-04-23 18:31 | 57.87443 | 17.98584 | 38025 ft | 495 kts | 233° |
| 2026-04-23 18:31 | 57.82647 | 17.89300 | 38030 ft | 495 kts | 233° |
| 2026-04-23 18:32 | 57.77845 | 17.80044 | 38046 ft | 494 kts | 233° |
| 2026-04-23 18:32 | 57.73074 | 17.70884 | 38039 ft | 494 kts | 233° |
| 2026-04-23 18:33 | 57.68271 | 17.61700 | 38040 ft | 493 kts | 233° |
| 2026-04-23 18:33 | 57.63469 | 17.52553 | 38044 ft | 493 kts | 233° |
| 2026-04-23 18:34 | 57.58653 | 17.43417 | 38047 ft | 492 kts | 232° |
| 2026-04-23 18:34 | 57.53881 | 17.34402 | 38048 ft | 491 kts | 232° |
| 2026-04-23 18:35 | 57.49071 | 17.25349 | 38050 ft | 491 kts | 232° |
| 2026-04-23 18:35 | 57.44259 | 17.16331 | 38050 ft | 491 kts | 232° |
| 2026-04-23 18:36 | 57.39441 | 17.07336 | 38056 ft | 490 kts | 232° |
| 2026-04-23 18:36 | 57.34644 | 16.98414 | 38053 ft | 490 kts | 232° |
| 2026-04-23 18:37 | 57.29826 | 16.89489 | 38054 ft | 490 kts | 232° |
| 2026-04-23 18:37 | 57.24988 | 16.80563 | 38060 ft | 490 kts | 232° |
| 2026-04-23 18:38 | 57.20189 | 16.71744 | 38063 ft | 489 kts | 232° |
| 2026-04-23 18:38 | 57.15358 | 16.62900 | 38057 ft | 488 kts | 231° |
| 2026-04-23 18:39 | 57.10564 | 16.54158 | 38060 ft | 487 kts | 231° |
| 2026-04-23 18:39 | 57.05749 | 16.45413 | 38064 ft | 486 kts | 231° |
| 2026-04-23 18:40 | 57.00933 | 16.36698 | 38060 ft | 485 kts | 231° |
| 2026-04-23 18:40 | 56.96123 | 16.28027 | 38054 ft | 483 kts | 231° |
| 2026-04-23 18:41 | 56.91318 | 16.19399 | 38054 ft | 482 kts | 231° |
| 2026-04-23 18:41 | 56.86551 | 16.10870 | 38053 ft | 481 kts | 231° |
| 2026-04-23 18:42 | 56.81762 | 16.02335 | 38049 ft | 480 kts | 231° |
| 2026-04-23 18:42 | 56.76980 | 15.93844 | 38054 ft | 479 kts | 231° |
| 2026-04-23 18:43 | 56.72232 | 15.85444 | 38056 ft | 478 kts | 231° |
| 2026-04-23 18:43 | 56.67447 | 15.77010 | 38057 ft | 477 kts | 231° |
| 2026-04-23 18:44 | 56.62671 | 15.68625 | 38059 ft | 476 kts | 231° |
| 2026-04-23 18:44 | 56.57930 | 15.60330 | 38065 ft | 475 kts | 231° |
| 2026-04-23 18:45 | 56.53146 | 15.51990 | 37799 ft | 475 kts | 231° |
| 2026-04-23 18:45 | 56.50778 | 15.47881 | 37513 ft | 467 kts | 231° |
| 2026-04-23 18:45 | 56.48437 | 15.43827 | 37233 ft | 464 kts | 231° |
| 2026-04-23 18:45 | 56.46104 | 15.39784 | 36974 ft | 466 kts | 231° |
| 2026-04-23 18:46 | 56.43754 | 15.35715 | 36713 ft | 469 kts | 230° |
| 2026-04-23 18:46 | 56.41381 | 15.31609 | 36460 ft | 474 kts | 230° |
| 2026-04-23 18:46 | 56.39019 | 15.27535 | 36202 ft | 476 kts | 230° |
| 2026-04-23 18:46 | 56.36617 | 15.23405 | 35940 ft | 477 kts | 230° |
| 2026-04-23 18:47 | 56.34212 | 15.19279 | 35688 ft | 478 kts | 230° |
| 2026-04-23 18:47 | 56.31796 | 15.15143 | 35439 ft | 478 kts | 230° |
| 2026-04-23 18:47 | 56.29423 | 15.10966 | 35179 ft | 471 kts | 234° |
| 2026-04-23 18:47 | 56.27363 | 15.06558 | 34715 ft | 462 kts | 238° |
| 2026-04-23 18:48 | 56.25375 | 15.02006 | 34058 ft | 463 kts | 239° |
| 2026-04-23 18:48 | 56.23406 | 14.97399 | 33161 ft | 467 kts | 239° |
| 2026-04-23 18:48 | 56.21415 | 14.92739 | 32232 ft | 473 kts | 238° |
| 2026-04-23 18:48 | 56.19381 | 14.88026 | 31331 ft | 478 kts | 238° |
| 2026-04-23 18:49 | 56.17324 | 14.83315 | 30455 ft | 482 kts | 237° |
| 2026-04-23 18:49 | 56.15235 | 14.78577 | 29508 ft | 485 kts | 237° |
| 2026-04-23 18:49 | 56.13128 | 14.73832 | 28497 ft | 487 kts | 237° |
| 2026-04-23 18:49 | 56.11004 | 14.69072 | 27477 ft | 490 kts | 236° |
| 2026-04-23 18:50 | 56.09598 | 14.65924 | 26784 ft | 492 kts | 236° |
| 2026-04-23 18:50 | 56.06741 | 14.59543 | 25368 ft | 496 kts | 236° |
| 2026-04-23 18:50 | 56.04580 | 14.54728 | 24534 ft | 494 kts | 236° |
| 2026-04-23 18:50 | 56.02435 | 14.49960 | 23905 ft | 488 kts | 236° |
| 2026-04-23 18:51 | 56.00321 | 14.45272 | 23203 ft | 481 kts | 236° |
| 2026-04-23 18:51 | 55.98228 | 14.40636 | 22452 ft | 476 kts | 236° |
| 2026-04-23 18:51 | 55.96159 | 14.36055 | 21719 ft | 471 kts | 236° |
| 2026-04-23 18:51 | 55.94108 | 14.31522 | 20985 ft | 466 kts | 236° |
| 2026-04-23 18:52 | 55.92109 | 14.27110 | 20288 ft | 462 kts | 236° |
| 2026-04-23 18:52 | 55.90094 | 14.22672 | 19588 ft | 457 kts | 236° |
| 2026-04-23 18:52 | 55.88098 | 14.18282 | 18906 ft | 453 kts | 236° |
| 2026-04-23 18:52 | 55.86116 | 14.13932 | 18214 ft | 450 kts | 236° |
| 2026-04-23 18:53 | 55.84151 | 14.09626 | 17491 ft | 446 kts | 236° |
| 2026-04-23 18:53 | 55.82209 | 14.05379 | 16829 ft | 440 kts | 236° |
| 2026-04-23 18:53 | 55.80283 | 14.01176 | 16188 ft | 435 kts | 236° |
| 2026-04-23 18:53 | 55.78381 | 13.97032 | 15548 ft | 430 kts | 236° |
| 2026-04-23 18:54 | 55.76499 | 13.92937 | 14907 ft | 426 kts | 236° |
| 2026-04-23 18:54 | 55.74627 | 13.88871 | 14269 ft | 423 kts | 236° |
| 2026-04-23 18:54 | 55.72793 | 13.84891 | 13647 ft | 419 kts | 236° |
| 2026-04-23 18:54 | 55.70957 | 13.80916 | 12998 ft | 414 kts | 235° |
| 2026-04-23 18:55 | 55.69139 | 13.76988 | 12407 ft | 408 kts | 235° |
| 2026-04-23 18:55 | 55.67342 | 13.73112 | 11840 ft | 402 kts | 235° |
| 2026-04-23 18:55 | 55.65588 | 13.69340 | 11625 ft | 388 kts | 235° |
| 2026-04-23 18:55 | 55.63905 | 13.65730 | 11512 ft | 372 kts | 236° |
| 2026-04-23 18:56 | 55.62826 | 13.63415 | 11439 ft | 363 kts | 236° |
| 2026-04-23 18:56 | 55.60754 | 13.58974 | 11317 ft | 344 kts | 236° |
| 2026-04-23 18:56 | 55.59258 | 13.55771 | 11245 ft | 332 kts | 236° |
| 2026-04-23 18:56 | 55.57815 | 13.52680 | 11153 ft | 320 kts | 236° |
| 2026-04-23 18:57 | 55.56415 | 13.49686 | 11066 ft | 310 kts | 237° |
| 2026-04-23 18:57 | 55.55064 | 13.46801 | 10990 ft | 299 kts | 237° |
| 2026-04-23 18:57 | 55.53751 | 13.43997 | 10838 ft | 292 kts | 237° |
| 2026-04-23 18:57 | 55.52459 | 13.41237 | 10574 ft | 290 kts | 237° |
| 2026-04-23 18:58 | 55.51174 | 13.38491 | 10284 ft | 290 kts | 237° |
| 2026-04-23 18:58 | 55.49893 | 13.35763 | 10020 ft | 288 kts | 237° |
| 2026-04-23 18:58 | 55.48627 | 13.33075 | 9720 ft | 287 kts | 237° |
| 2026-04-23 18:58 | 55.47356 | 13.30381 | 9436 ft | 285 kts | 236° |
| 2026-04-23 18:59 | 55.46099 | 13.27685 | 9174 ft | 280 kts | 240° |
| 2026-04-23 18:59 | 55.45168 | 13.24818 | 9148 ft | 259 kts | 251° |
| 2026-04-23 18:59 | 55.44449 | 13.22022 | 8912 ft | 248 kts | 253° |
| 2026-04-23 18:59 | 55.43762 | 13.19237 | 8429 ft | 248 kts | 253° |
| 2026-04-23 19:00 | 55.43067 | 13.16460 | 7982 ft | 247 kts | 252° |
| 2026-04-23 19:00 | 55.42363 | 13.13704 | 7575 ft | 245 kts | 251° |
| 2026-04-23 19:00 | 55.41658 | 13.10995 | 7272 ft | 240 kts | 251° |
| 2026-04-23 19:00 | 55.40965 | 13.08358 | 7103 ft | 235 kts | 251° |
| 2026-04-23 19:01 | 55.40287 | 13.05795 | 6989 ft | 227 kts | 251° |
| 2026-04-23 19:01 | 55.39637 | 13.03338 | 6867 ft | 222 kts | 251° |
| 2026-04-23 19:01 | 55.38823 | 13.01009 | 6728 ft | 230 kts | 227° |
| 2026-04-23 19:01 | 55.37519 | 12.99357 | 6651 ft | 232 kts | 219° |
| 2026-04-23 19:02 | 55.36634 | 12.98300 | 6571 ft | 232 kts | 219° |
| 2026-04-23 19:02 | 55.34846 | 12.96132 | 6406 ft | 233 kts | 219° |
| 2026-04-23 19:02 | 55.33512 | 12.94507 | 6285 ft | 234 kts | 219° |
| 2026-04-23 19:02 | 55.32176 | 12.92871 | 6167 ft | 233 kts | 221° |
| 2026-04-23 19:03 | 55.31185 | 12.90755 | 6031 ft | 220 kts | 254° |
| 2026-04-23 19:03 | 55.31014 | 12.88233 | 5946 ft | 207 kts | 283° |
| 2026-04-23 19:03 | 55.31472 | 12.85898 | 5854 ft | 200 kts | 304° |
| 2026-04-23 19:03 | 55.32268 | 12.83902 | 5767 ft | 198 kts | 309° |
| 2026-04-23 19:04 | 55.32820 | 12.82627 | 5699 ft | 198 kts | 310° |
| 2026-04-23 19:04 | 55.33926 | 12.80072 | 5571 ft | 199 kts | 309° |
| 2026-04-23 19:04 | 55.34763 | 12.78126 | 5470 ft | 199 kts | 309° |
| 2026-04-23 19:04 | 55.35600 | 12.76195 | 5390 ft | 199 kts | 310° |
| 2026-04-23 19:05 | 55.36170 | 12.74937 | 5324 ft | 199 kts | 311° |
| 2026-04-23 19:05 | 55.36790 | 12.72769 | 5105 ft | 206 kts | 281° |
| 2026-04-23 19:05 | 55.36851 | 12.70261 | 4913 ft | 204 kts | 277° |
| 2026-04-23 19:05 | 55.36910 | 12.67795 | 4679 ft | 199 kts | 277° |
| 2026-04-23 19:06 | 55.36976 | 12.65391 | 4439 ft | 195 kts | 277° |
| 2026-04-23 19:06 | 55.37048 | 12.63004 | 4219 ft | 195 kts | 277° |
| 2026-04-23 19:06 | 55.37123 | 12.60640 | 3990 ft | 195 kts | 277° |
| 2026-04-23 19:06 | 55.37202 | 12.58254 | 3761 ft | 195 kts | 277° |
| 2026-04-23 19:07 | 55.37280 | 12.55869 | 3531 ft | 195 kts | 277° |
| 2026-04-23 19:07 | 55.37359 | 12.53491 | 3299 ft | 195 kts | 277° |
| 2026-04-23 19:07 | 55.37437 | 12.51122 | 3095 ft | 193 kts | 276° |
| 2026-04-23 19:07 | 55.37516 | 12.48751 | 3038 ft | 194 kts | 276° |
| 2026-04-23 19:08 | 55.37738 | 12.46453 | 2996 ft | 189 kts | 298° |
| 2026-04-23 19:08 | 55.38547 | 12.44689 | 3010 ft | 189 kts | 314° |
| 2026-04-23 19:08 | 55.39477 | 12.43039 | 3008 ft | 190 kts | 315° |
| 2026-04-23 19:08 | 55.40412 | 12.41400 | 3006 ft | 189 kts | 315° |
| 2026-04-23 19:09 | 55.41507 | 12.40157 | 2997 ft | 190 kts | 344° |
| 2026-04-23 19:09 | 55.42831 | 12.40315 | 3021 ft | 195 kts | 12° |
| 2026-04-23 19:09 | 55.44132 | 12.41063 | 3013 ft | 197 kts | 14° |
| 2026-04-23 19:09 | 55.45420 | 12.41843 | 3000 ft | 192 kts | 15° |
| 2026-04-23 19:10 | 55.46649 | 12.42600 | 2985 ft | 187 kts | 15° |
| 2026-04-23 19:10 | 55.47840 | 12.43372 | 2931 ft | 180 kts | 21° |
| 2026-04-23 19:10 | 55.48886 | 12.44587 | 2714 ft | 177 kts | 31° |
| 2026-04-23 19:10 | 55.49865 | 12.45895 | 2471 ft | 175 kts | 34° |
| 2026-04-23 19:11 | 55.50789 | 12.47272 | 2233 ft | 171 kts | 36° |
| 2026-04-23 19:11 | 55.51668 | 12.48630 | 2009 ft | 167 kts | 37° |
| 2026-04-23 19:11 | 55.52509 | 12.49939 | 1825 ft | 158 kts | 36° |
| 2026-04-23 19:11 | 55.53344 | 12.51233 | 1573 ft | 158 kts | 37° |
| 2026-04-23 19:12 | 55.54160 | 12.52502 | 1353 ft | 154 kts | 37° |
| 2026-04-23 19:12 | 55.54957 | 12.53738 | 1153 ft | 149 kts | 37° |
| 2026-04-23 19:12 | 55.55715 | 12.54916 | 943 ft | 144 kts | 38° |
| 2026-04-23 19:12 | 55.56471 | 12.56085 | 754 ft | 145 kts | 39° |
| 2026-04-23 19:13 | 55.57230 | 12.57264 | 566 ft | 145 kts | 39° |
| 2026-04-23 19:13 | 55.57989 | 12.58448 | 359 ft | 147 kts | 40° |
| 2026-04-23 19:13 | 55.58757 | 12.59639 | 172 ft | 147 kts | 39° |
| 2026-04-23 19:13 | 55.59525 | 12.60829 | 21 ft | 142 kts | 40° |
| 2026-04-23 19:14 | 55.60162 | 12.61808 | 19 ft | 92 kts | 41° |
| 2026-04-23 19:14 | 55.60530 | 12.62296 | 19 ft | 48 kts | 22° |
| 2026-04-23 19:14 | 55.60782 | 12.62407 | 16 ft | 29 kts | 24° |
| 2026-04-23 19:14 | 55.60931 | 12.62622 | 16 ft | 27 kts | 41° |
| 2026-04-23 19:15 | 55.61067 | 12.62831 | 17 ft | 25 kts | 41° |
| 2026-04-23 19:15 | 55.61193 | 12.63028 | 16 ft | 23 kts | 41° |
| 2026-04-23 19:15 | 55.61313 | 12.63213 | 16 ft | 22 kts | 41° |
| 2026-04-23 19:15 | 55.61430 | 12.63393 | 16 ft | 22 kts | 41° |
| 2026-04-23 19:16 | 55.61542 | 12.63566 | 16 ft | 21 kts | 41° |
| 2026-04-23 19:16 | 55.61651 | 12.63736 | 16 ft | 21 kts | 41° |
| 2026-04-23 19:16 | 55.61757 | 12.63900 | 17 ft | 20 kts | 41° |
| 2026-04-23 19:17 | 55.61980 | 12.64161 | 17 ft | 19 kts | 25° |
| 2026-04-23 19:17 | 55.62096 | 12.64259 | 16 ft | 18 kts | 25° |
| 2026-04-23 19:17 | 55.62208 | 12.64354 | 14 ft | 18 kts | 25° |
| 2026-04-23 19:17 | 55.62322 | 12.64419 | 18 ft | 17 kts | 15° |
| 2026-04-23 19:18 | 55.62435 | 12.64472 | 16 ft | 16 kts | 15° |
| 2026-04-23 19:18 | 55.62525 | 12.64399 | 17 ft | 17 kts | 302° |
| 2026-04-23 19:18 | 55.62590 | 12.64220 | 16 ft | 13 kts | 303° |
| 2026-04-23 19:18 | 55.62641 | 12.64202 | 16 ft | 8 kts | 32° |
| 2026-04-23 19:19 | 55.62664 | 12.64228 | 18 ft | 0 kts | 33° |